ADDS METAR Data INFO
IDs: Format: Raw Decoded Include TAF

Data at: 1229 UTC 20 Jul 2017

METAR for:PAAK (Atka Arpt, AK, US)
Text:PAAK 201216Z 29016KT 2 1/2SM FEW003 BKN029 OVC060 09/06 A3000 RMK AO1
Temperature: 9.0°C ( 48°F)
Dewpoint: 6.0°C ( 43°F) [RH = 81%]
Pressure (altimeter):30.00 inches Hg (1016.0 mb)
Winds:from the WNW (290 degrees) at 18 MPH (16 knots; 8.2 m/s)
Visibility: 2.50 sm ( 4.02 km)
Ceiling:2900 feet AGL
Clouds: few clouds at 300 feet AGL, broken clouds at 2900 feet AGL, overcast cloud deck at 6000 feet AGL
Text:PAAK 201156Z 28017KT 1 3/4SM BKN003 OVC060 08/06 A3000 RMK AO1 10090 20080 57020
Temperature: 8.0°C ( 46°F)
Dewpoint: 6.0°C ( 43°F) [RH = 87%]
Pressure (altimeter):30.00 inches Hg (1016.0 mb)
Winds:from the W (280 degrees) at 20 MPH (17 knots; 8.7 m/s)
Visibility: 1.75 sm ( 2.82 km)
Ceiling:300 feet AGL
Clouds: broken clouds at 300 feet AGL, overcast cloud deck at 6000 feet AGL
Text:PAAK 201136Z 27017KT 1 3/4SM OVC003 08/06 A3001 RMK AO1
Temperature: 8.0°C ( 46°F)
Dewpoint: 6.0°C ( 43°F) [RH = 87%]
Pressure (altimeter):30.01 inches Hg (1016.3 mb)
Winds:from the W (270 degrees) at 20 MPH (17 knots; 8.7 m/s)
Visibility: 1.75 sm ( 2.82 km)
Ceiling:300 feet AGL
Clouds: overcast cloud deck at 300 feet AGL
Text:PAAK 201116Z 28015KT 1 3/4SM OVC003 08/06 A3002 RMK AO1
Temperature: 8.0°C ( 46°F)
Dewpoint: 6.0°C ( 43°F) [RH = 87%]
Pressure (altimeter):30.02 inches Hg (1016.7 mb)
Winds:from the W (280 degrees) at 17 MPH (15 knots; 7.7 m/s)
Visibility: 1.75 sm ( 2.82 km)
Ceiling:300 feet AGL
Clouds: overcast cloud deck at 300 feet AGL
Text:PAAK 201056Z 29011KT 1 3/4SM OVC003 09/06 A3003 RMK AO1
Temperature: 9.0°C ( 48°F)
Dewpoint: 6.0°C ( 43°F) [RH = 81%]
Pressure (altimeter):30.03 inches Hg (1017.0 mb)
Winds:from the WNW (290 degrees) at 13 MPH (11 knots; 5.7 m/s)
Visibility: 1.75 sm ( 2.82 km)
Ceiling:300 feet AGL
Clouds: overcast cloud deck at 300 feet AGL
Text:PAAK 201036Z 28008KT 2 1/2SM OVC004 09/07 A3004 RMK AO1
Temperature: 9.0°C ( 48°F)
Dewpoint: 7.0°C ( 45°F) [RH = 87%]
Pressure (altimeter):30.04 inches Hg (1017.4 mb)
Winds:from the W (280 degrees) at 9 MPH (8 knots; 4.1 m/s)
Visibility: 2.50 sm ( 4.02 km)
Ceiling:400 feet AGL
Clouds: overcast cloud deck at 400 feet AGL
Text:PAAK 201016Z 30009G15KT 2 1/2SM BKN004 OVC012 09/06 A3004 RMK AO1
Temperature: 9.0°C ( 48°F)
Dewpoint: 6.0°C ( 43°F) [RH = 81%]
Pressure (altimeter):30.04 inches Hg (1017.4 mb)
Winds:from the WNW (300 degrees) at 10 MPH (9 knots; 4.6 m/s) gusting to 17 MPH (15 knots; 7.7 m/s)
Visibility: 2.50 sm ( 4.02 km)
Ceiling:400 feet AGL
Clouds: broken clouds at 400 feet AGL, overcast cloud deck at 1200 feet AGL
Text:PAAK 200956Z 30013G17KT 3SM BKN004 OVC010 09/06 A3004 RMK AO1
Temperature: 9.0°C ( 48°F)
Dewpoint: 6.0°C ( 43°F) [RH = 81%]
Pressure (altimeter):30.04 inches Hg (1017.4 mb)
Winds:from the WNW (300 degrees) at 15 MPH (13 knots; 6.7 m/s) gusting to 20 MPH (17 knots; 8.7 m/s)
Visibility: 3 sm ( 5 km)
Ceiling:400 feet AGL
Clouds: broken clouds at 400 feet AGL, overcast cloud deck at 1000 feet AGL
Text:PAAK 200936Z 30013G17KT 3SM BKN003 OVC010 09/06 A3005 RMK AO1
Temperature: 9.0°C ( 48°F)
Dewpoint: 6.0°C ( 43°F) [RH = 81%]
Pressure (altimeter):30.05 inches Hg (1017.7 mb)
Winds:from the WNW (300 degrees) at 15 MPH (13 knots; 6.7 m/s) gusting to 20 MPH (17 knots; 8.7 m/s)
Visibility: 3 sm ( 5 km)
Ceiling:300 feet AGL
Clouds: broken clouds at 300 feet AGL, overcast cloud deck at 1000 feet AGL
Text:PAAK 200916Z 30016G20KT 3SM OVC004 09/06 A3005 RMK AO1
Temperature: 9.0°C ( 48°F)
Dewpoint: 6.0°C ( 43°F) [RH = 81%]
Pressure (altimeter):30.05 inches Hg (1017.7 mb)
Winds:from the WNW (300 degrees) at 18 MPH (16 knots; 8.2 m/s) gusting to 23 MPH (20 knots; 10.3 m/s)
Visibility: 3 sm ( 5 km)
Ceiling:400 feet AGL
Clouds: overcast cloud deck at 400 feet AGL
Text:PAAK 200856Z 30015KT 2 1/2SM OVC004 09/06 A3006 RMK AO1 52010
Temperature: 9.0°C ( 48°F)
Dewpoint: 6.0°C ( 43°F) [RH = 81%]
Pressure (altimeter):30.06 inches Hg (1018.0 mb)
Winds:from the WNW (300 degrees) at 17 MPH (15 knots; 7.7 m/s)
Visibility: 2.50 sm ( 4.02 km)
Ceiling:400 feet AGL
Clouds: overcast cloud deck at 400 feet AGL
Text:PAAK 200836Z 30014G19KT 2 1/2SM OVC004 09/06 A3005 RMK AO1
Temperature: 9.0°C ( 48°F)
Dewpoint: 6.0°C ( 43°F) [RH = 81%]
Pressure (altimeter):30.05 inches Hg (1017.7 mb)
Winds:from the WNW (300 degrees) at 16 MPH (14 knots; 7.2 m/s) gusting to 22 MPH (19 knots; 9.8 m/s)
Visibility: 2.50 sm ( 4.02 km)
Ceiling:400 feet AGL
Clouds: overcast cloud deck at 400 feet AGL
Text:PAAK 200816Z 30015G19KT 2 1/2SM OVC004 09/06 A3004 RMK AO1
Temperature: 9.0°C ( 48°F)
Dewpoint: 6.0°C ( 43°F) [RH = 81%]
Pressure (altimeter):30.04 inches Hg (1017.4 mb)
Winds:from the WNW (300 degrees) at 17 MPH (15 knots; 7.7 m/s) gusting to 22 MPH (19 knots; 9.8 m/s)
Visibility: 2.50 sm ( 4.02 km)
Ceiling:400 feet AGL
Clouds: overcast cloud deck at 400 feet AGL
Text:PAAK 200756Z 30015G20KT 1 1/2SM OVC004 09/06 A3004 RMK AO1
Temperature: 9.0°C ( 48°F)
Dewpoint: 6.0°C ( 43°F) [RH = 81%]
Pressure (altimeter):30.04 inches Hg (1017.4 mb)
Winds:from the WNW (300 degrees) at 17 MPH (15 knots; 7.7 m/s) gusting to 23 MPH (20 knots; 10.3 m/s)
Visibility: 1.50 sm ( 2.41 km)
Ceiling:400 feet AGL
Clouds: overcast cloud deck at 400 feet AGL
Text:PAAK 200736Z 30015G19KT 1 3/4SM OVC004 09/06 A3004 RMK AO1
Temperature: 9.0°C ( 48°F)
Dewpoint: 6.0°C ( 43°F) [RH = 81%]
Pressure (altimeter):30.04 inches Hg (1017.4 mb)
Winds:from the WNW (300 degrees) at 17 MPH (15 knots; 7.7 m/s) gusting to 22 MPH (19 knots; 9.8 m/s)
Visibility: 1.75 sm ( 2.82 km)
Ceiling:400 feet AGL
Clouds: overcast cloud deck at 400 feet AGL
Text:PAAK 200716Z 30015G21KT 2 1/2SM OVC004 09/06 A3003 RMK AO1
Temperature: 9.0°C ( 48°F)
Dewpoint: 6.0°C ( 43°F) [RH = 81%]
Pressure (altimeter):30.03 inches Hg (1017.0 mb)
Winds:from the WNW (300 degrees) at 17 MPH (15 knots; 7.7 m/s) gusting to 24 MPH (21 knots; 10.8 m/s)
Visibility: 2.50 sm ( 4.02 km)
Ceiling:400 feet AGL
Clouds: overcast cloud deck at 400 feet AGL
Text:PAAK 200656Z 30014G18KT 3SM OVC004 09/06 A3003 RMK AO1
Temperature: 9.0°C ( 48°F)
Dewpoint: 6.0°C ( 43°F) [RH = 81%]
Pressure (altimeter):30.03 inches Hg (1017.0 mb)
Winds:from the WNW (300 degrees) at 16 MPH (14 knots; 7.2 m/s) gusting to 21 MPH (18 knots; 9.3 m/s)
Visibility: 3 sm ( 5 km)
Ceiling:400 feet AGL
Clouds: overcast cloud deck at 400 feet AGL
Text:PAAK 200636Z 30016G20KT 3SM OVC004 09/06 A3003 RMK AO1
Temperature: 9.0°C ( 48°F)
Dewpoint: 6.0°C ( 43°F) [RH = 81%]
Pressure (altimeter):30.03 inches Hg (1017.0 mb)
Winds:from the WNW (300 degrees) at 18 MPH (16 knots; 8.2 m/s) gusting to 23 MPH (20 knots; 10.3 m/s)
Visibility: 3 sm ( 5 km)
Ceiling:400 feet AGL
Clouds: overcast cloud deck at 400 feet AGL

TAF for:PAAK (Atka Arpt, AK, US)
Text:No data found